createdAt,value
2022-09-09T00:01:53.434Z,99598.66
2022-09-09T00:04:28.595Z,99591.56
2022-09-09T00:07:05.026Z,99595.09
2022-09-09T00:09:41.119Z,99597.25
2022-09-09T00:12:13.668Z,99590.69
2022-09-09T00:14:49.410Z,99583.44
2022-09-09T00:17:26.243Z,99588.41
2022-09-09T00:19:59.153Z,99582.63
2022-09-09T00:22:29.627Z,99586.47
2022-09-09T00:25:00.619Z,99591.06
2022-09-09T00:27:34.890Z,99595.16
2022-09-09T00:30:14.810Z,99593.25
2022-09-09T00:32:45.474Z,99587.66
2022-09-09T00:35:20.474Z,99582.22
2022-09-09T00:37:52.899Z,99588.06
2022-09-09T00:40:27.263Z,99587.25
2022-09-09T00:43:09.620Z,99592.34
2022-09-09T00:45:58.701Z,99586.84
2022-09-09T00:48:37.035Z,99596.22
2022-09-09T00:51:11.652Z,99592.78
2022-09-09T00:53:56.534Z,99595.16
2022-09-09T00:56:31.231Z,99591.25
2022-09-09T00:59:08.420Z,99591.09
2022-09-09T01:01:36.461Z,99593.84
2022-09-09T01:04:12.508Z,99596.78
2022-09-09T01:06:40.653Z,99594.66
2022-09-09T01:09:17.684Z,99593.34
2022-09-09T01:11:54.763Z,99594.06
2022-09-09T01:14:34.463Z,99589.97
2022-09-09T01:17:06.438Z,99593.34
2022-09-09T01:19:46.581Z,99596.47
2022-09-09T01:22:24.042Z,99592.69
2022-09-09T01:25:12.017Z,99597.28
2022-09-09T01:27:43.937Z,99591.53
2022-09-09T01:30:13.618Z,99594.50
2022-09-09T01:32:44.847Z,99584.63
2022-09-09T01:35:17.023Z,99596.03
2022-09-09T01:37:44.927Z,99590.44
2022-09-09T01:40:12.615Z,99586.34
2022-09-09T01:42:41.952Z,99585.22
2022-09-09T01:45:10.960Z,99587.94
2022-09-09T01:47:38.645Z,99582.97
2022-09-09T01:50:07.424Z,99587.56
2022-09-09T01:52:38.091Z,99590.44
2022-09-09T01:55:07.239Z,99581.66
2022-09-09T01:57:48.411Z,99578.72
2022-09-09T02:00:17.375Z,99576.00
2022-09-09T02:02:57.878Z,99581.41
2022-09-09T02:05:32.677Z,99579.94
2022-09-09T02:08:07.530Z,99585.34
2022-09-09T02:10:42.878Z,99583.13
2022-09-09T02:13:14.875Z,99586.06
2022-09-09T02:15:49.289Z,99583.22
2022-09-09T02:18:24.350Z,99589.13
2022-09-09T02:20:53.547Z,99591.44
2022-09-09T02:23:21.717Z,99590.06
2022-09-09T02:25:52.555Z,99597.75
2022-09-09T02:28:26.350Z,99607.75
2022-09-09T02:30:56.184Z,99594.00
2022-09-09T02:33:28.615Z,99609.41
2022-09-09T02:36:04.439Z,99607.59
2022-09-09T02:38:38.207Z,99605.50
2022-09-09T02:41:07.314Z,99607.97
2022-09-09T02:43:36.792Z,99608.56
2022-09-09T02:46:14.034Z,99611.25
2022-09-09T02:48:52.412Z,99610.25
2022-09-09T02:51:26.357Z,99603.88
2022-09-09T02:54:02.818Z,99600.47
2022-09-09T02:56:34.902Z,99605.97
2022-09-09T02:59:06.943Z,99601.72
2022-09-09T03:01:36.164Z,99607.94
2022-09-09T03:04:05.982Z,99605.09
2022-09-09T03:06:33.714Z,99604.53
2022-09-09T03:09:02.907Z,99602.63
2022-09-09T03:11:31.033Z,99602.22
2022-09-09T03:13:58.696Z,99603.44
2022-09-09T03:16:27.681Z,99593.75
2022-09-09T03:18:55.391Z,99602.47
2022-09-09T03:21:23.099Z,99596.41
2022-09-09T03:23:50.782Z,99585.81
2022-09-09T03:26:18.482Z,99579.50
2022-09-09T03:28:46.078Z,99586.34
2022-09-09T03:31:13.853Z,99581.84
2022-09-09T03:33:43.325Z,99582.66
2022-09-09T03:36:11.502Z,99583.25
2022-09-09T03:38:39.040Z,99582.59
2022-09-09T03:41:08.710Z,99586.19
2022-09-09T03:43:37.372Z,99599.25
2022-09-09T03:46:05.152Z,99597.53
2022-09-09T03:48:32.967Z,99588.25
2022-09-09T03:51:03.397Z,99591.72
2022-09-09T03:53:31.508Z,99594.72
2022-09-09T03:56:00.920Z,99582.66
2022-09-09T03:58:29.322Z,99585.72
2022-09-09T04:00:58.489Z,99582.91
2022-09-09T04:03:28.283Z,99576.28
2022-09-09T04:05:57.817Z,99580.78
2022-09-09T04:08:27.225Z,99579.72
2022-09-09T04:10:59.132Z,99588.84
2022-09-09T04:13:27.597Z,99574.13
2022-09-09T04:15:56.835Z,99587.09
2022-09-09T04:18:25.328Z,99576.19
2022-09-09T04:20:54.443Z,99583.47
2022-09-09T04:23:22.150Z,99577.06
2022-09-09T04:25:52.592Z,99574.75
2022-09-09T04:28:22.246Z,99582.53
2022-09-09T04:30:49.992Z,99585.75
2022-09-09T04:33:18.626Z,99586.09
2022-09-09T04:35:47.917Z,99578.63
2022-09-09T04:38:15.795Z,99575.75
2022-09-09T04:40:44.574Z,99578.13
2022-09-09T04:43:14.634Z,99585.19
2022-09-09T04:45:42.416Z,99571.41
2022-09-09T04:48:10.641Z,99567.16
2022-09-09T04:50:38.287Z,99565.09
2022-09-09T04:53:06.840Z,99570.19
2022-09-09T04:55:35.974Z,99576.03
2022-09-09T04:58:06.765Z,99583.09
2022-09-09T05:00:37.189Z,99569.88
2022-09-09T05:03:06.459Z,99577.34
2022-09-09T05:05:35.621Z,99577.09
2022-09-09T05:08:04.896Z,99587.25
2022-09-09T05:10:32.862Z,99585.13
2022-09-09T05:13:00.427Z,99590.13
2022-09-09T05:15:28.053Z,99594.47
2022-09-09T05:18:01.148Z,99606.66
2022-09-09T05:20:29.172Z,99611.06
2022-09-09T05:22:57.347Z,99616.09
2022-09-09T05:25:26.912Z,99611.31
2022-09-09T05:27:55.471Z,99620.25
2022-09-09T05:30:25.658Z,99622.06
2022-09-09T05:32:53.213Z,99625.19
2022-09-09T05:35:22.050Z,99631.56
2022-09-09T05:37:49.639Z,99629.03
2022-09-09T05:40:17.308Z,99624.66
2022-09-09T05:42:44.942Z,99635.19
2022-09-09T05:45:12.643Z,99629.63
2022-09-09T05:47:40.421Z,99629.09
2022-09-09T05:50:08.640Z,99640.81
2022-09-09T05:52:37.705Z,99643.69
2022-09-09T05:55:06.390Z,99643.78
2022-09-09T05:57:34.178Z,99647.31
2022-09-09T06:00:02.191Z,99648.13
2022-09-09T06:02:29.885Z,99644.69
2022-09-09T06:05:00.644Z,99649.56
2022-09-09T06:07:28.402Z,99651.75
2022-09-09T06:09:57.319Z,99660.13
2022-09-09T06:12:24.989Z,99647.00
2022-09-09T06:14:52.745Z,99655.34
2022-09-09T06:17:20.397Z,99657.94
2022-09-09T06:19:48.005Z,99655.63
2022-09-09T06:22:15.650Z,99656.16
2022-09-09T06:24:43.217Z,99651.00
2022-09-09T06:27:14.695Z,99648.72
2022-09-09T06:29:42.282Z,99650.56
2022-09-09T06:32:10.462Z,99656.28
2022-09-09T06:34:38.440Z,99650.88
2022-09-09T06:37:07.196Z,99646.13
2022-09-09T06:39:34.837Z,99653.28
2022-09-09T06:42:02.553Z,99645.41
2022-09-09T06:44:35.288Z,99636.66
2022-09-09T06:47:03.270Z,99642.31
2022-09-09T06:49:30.871Z,99643.69
2022-09-09T06:51:58.477Z,99651.03
2022-09-09T06:54:26.676Z,99648.09
2022-09-09T06:56:54.431Z,99645.34
2022-09-09T06:59:22.373Z,99651.31
2022-09-09T07:01:55.749Z,99649.75
2022-09-09T07:04:23.877Z,99645.56
2022-09-09T07:06:53.316Z,99639.59
2022-09-09T07:09:21.017Z,99641.56
2022-09-09T07:11:51.567Z,99645.59
2022-09-09T07:14:19.098Z,99640.97
2022-09-09T07:16:47.699Z,99639.38
2022-09-09T07:19:17.247Z,99641.56
2022-09-09T07:21:45.255Z,99636.94
2022-09-09T07:24:13.846Z,99647.00
2022-09-09T07:26:42.351Z,99650.16
2022-09-09T07:29:10.754Z,99648.41
2022-09-09T07:31:40.861Z,99647.97
2022-09-09T07:34:09.276Z,99644.28
2022-09-09T07:36:40.176Z,99647.28
2022-09-09T07:39:10.891Z,99647.22
2022-09-09T07:41:40.741Z,99647.50
2022-09-09T07:44:10.333Z,99649.84
2022-09-09T07:46:40.314Z,99647.03
2022-09-09T07:49:08.025Z,99652.91
2022-09-09T07:51:40.231Z,99657.81
2022-09-09T07:54:10.381Z,99651.69
2022-09-09T07:56:40.245Z,99666.38
2022-09-09T07:59:09.622Z,99666.41
2022-09-09T08:01:40.342Z,99667.13
2022-09-09T08:04:10.514Z,99680.59
2022-09-09T08:06:41.374Z,99680.59
2022-09-09T08:09:10.374Z,99682.28
2022-09-09T08:11:39.313Z,99686.56
2022-09-09T08:14:08.544Z,99677.56
2022-09-09T08:16:38.356Z,99684.19
2022-09-09T08:19:08.168Z,99683.63
2022-09-09T08:21:39.217Z,99681.34
2022-09-09T08:24:09.012Z,99691.00
2022-09-09T08:26:38.871Z,99692.78
2022-09-09T08:29:08.851Z,99687.06
2022-09-09T08:31:38.063Z,99694.47
2022-09-09T08:34:06.830Z,99699.38
2022-09-09T08:36:36.909Z,99697.44
2022-09-09T08:39:06.715Z,99697.75
2022-09-09T08:42:01.492Z,99697.97
2022-09-09T08:44:44.401Z,99689.44
2022-09-09T08:47:31.771Z,99697.66
2022-09-09T08:50:13.625Z,99687.03
2022-09-09T08:52:50.895Z,99695.63
2022-09-09T08:55:28.922Z,99689.94
2022-09-09T08:58:02.029Z,99689.66
2022-09-09T09:00:37.564Z,99685.91
2022-09-09T09:03:11.660Z,99676.41
2022-09-09T09:05:47.615Z,99666.59
2022-09-09T09:08:26.466Z,99659.00
2022-09-09T09:10:59.167Z,99658.44
2022-09-09T09:13:41.670Z,99651.06
2022-09-09T09:16:20.305Z,99660.31
2022-09-09T09:18:48.120Z,99666.81
2022-09-09T09:21:22.643Z,99663.03
2022-09-09T09:23:57.857Z,99665.72
2022-09-09T09:26:27.829Z,99666.31
2022-09-09T09:28:58.408Z,99667.66
2022-09-09T09:31:27.763Z,99670.50
2022-09-09T09:33:59.496Z,99666.44
2022-09-09T09:36:36.880Z,99668.47
2022-09-09T09:41:55.243Z,99667.97
2022-09-09T09:44:29.370Z,99667.72
2022-09-09T09:47:08.519Z,99661.22
2022-09-09T09:49:36.419Z,99662.53
2022-09-09T09:52:05.468Z,99663.09
2022-09-09T09:54:36.947Z,99667.72
2022-09-09T09:57:12.575Z,99669.63
2022-09-09T09:59:41.749Z,99671.47
2022-09-09T10:02:22.019Z,99662.72
2022-09-09T10:04:49.793Z,99661.06
2022-09-09T10:07:21.023Z,99660.56
2022-09-09T10:09:54.131Z,99649.91
2022-09-09T10:12:32.657Z,99652.66
2022-09-09T10:15:07.852Z,99660.28
2022-09-09T10:17:43.028Z,99659.50
2022-09-09T10:20:26.716Z,99649.47
2022-09-09T10:23:05.173Z,99643.50
2022-09-09T10:25:52.701Z,99648.44
2022-09-09T10:28:48.297Z,99634.31
2022-09-09T10:31:26.102Z,99633.97
2022-09-09T10:34:04.970Z,99640.47
2022-09-09T10:36:32.686Z,99634.50
2022-09-09T10:39:05.074Z,99642.31
2022-09-09T10:41:47.236Z,99635.75
2022-09-09T10:44:25.139Z,99637.19
2022-09-09T10:47:30.211Z,99632.47
2022-09-09T10:50:14.472Z,99626.22
2022-09-09T10:52:56.234Z,99616.94
2022-09-09T10:55:30.086Z,99614.16
2022-09-09T10:58:00.350Z,99617.56
2022-09-09T11:00:39.813Z,99617.88
2022-09-09T11:03:13.556Z,99616.19
2022-09-09T11:05:45.808Z,99631.19
2022-09-09T11:08:19.035Z,99635.81
2022-09-09T11:10:53.505Z,99626.53
2022-09-09T11:13:27.140Z,99626.81
2022-09-09T11:16:00.798Z,99631.00
2022-09-09T11:18:33.750Z,99633.84
2022-09-09T11:21:05.354Z,99630.59
2022-09-09T11:23:42.251Z,99634.25
2022-09-09T11:26:17.322Z,99628.03
2022-09-09T11:29:04.093Z,99629.34
2022-09-09T11:31:46.502Z,99630.47
2022-09-09T11:34:41.495Z,99625.25
2022-09-09T11:37:26.397Z,99639.41
2022-09-09T11:40:10.745Z,99626.13
2022-09-09T11:42:39.023Z,99624.56
2022-09-09T11:45:22.603Z,99624.13
2022-09-09T11:47:55.554Z,99622.56
2022-09-09T11:50:38.478Z,99626.72
2022-09-09T11:53:28.594Z,99624.06
2022-09-09T11:56:05.627Z,99604.34
2022-09-09T11:58:39.888Z,99603.75
2022-09-09T12:01:29.151Z,99595.59
2022-09-09T12:04:09.093Z,99599.69
2022-09-09T12:06:47.422Z,99610.41
2022-09-09T12:09:25.195Z,99617.66
2022-09-09T12:11:53.089Z,99618.53
2022-09-09T12:14:36.190Z,99611.63
2022-09-09T12:17:12.552Z,99617.78
2022-09-09T12:19:40.129Z,99611.41
2022-09-09T12:22:19.366Z,99608.13
2022-09-09T12:24:54.730Z,99603.59
2022-09-09T12:27:27.952Z,99603.31
2022-09-09T12:30:02.402Z,99599.22
2022-09-09T12:32:31.075Z,99590.44
2022-09-09T12:35:02.782Z,99590.19
2022-09-09T12:37:37.052Z,99581.75
2022-09-09T12:40:06.612Z,99586.47
2022-09-09T12:42:39.157Z,99589.94
2022-09-09T12:45:19.613Z,99590.81
2022-09-09T12:47:51.743Z,99584.94
2022-09-09T12:50:23.143Z,99602.31
2022-09-09T12:52:54.686Z,99631.94
2022-09-09T12:55:26.144Z,99672.75
2022-09-09T12:57:54.671Z,99624.28
2022-09-09T13:00:25.075Z,99617.34
2022-09-09T13:02:54.683Z,99602.97
2022-09-09T13:05:25.173Z,99622.22
2022-09-09T13:08:03.755Z,99624.56
2022-09-09T13:10:43.280Z,99630.09
2022-09-09T13:13:23.143Z,99635.41
2022-09-09T13:15:53.509Z,99634.50
2022-09-09T13:18:25.194Z,99622.03
2022-09-09T13:20:53.616Z,99628.94
2022-09-09T13:23:23.691Z,99640.94
2022-09-09T13:25:59.190Z,99646.41
2022-09-09T13:28:28.511Z,99645.25
2022-09-09T13:31:03.764Z,99644.66
2022-09-09T13:33:34.667Z,99639.72
2022-09-09T13:36:06.036Z,99640.53
2022-09-09T13:38:37.558Z,99628.63
2022-09-09T13:41:07.143Z,99636.88
2022-09-09T13:43:39.431Z,99628.66
2022-09-09T13:46:26.857Z,99626.03
2022-09-09T13:48:59.068Z,99623.59
2022-09-09T13:51:35.466Z,99626.03
2022-09-09T13:54:04.667Z,99610.47
2022-09-09T13:56:32.764Z,99613.47
2022-09-09T13:59:00.406Z,99628.47
2022-09-09T14:01:29.655Z,99624.34
2022-09-09T14:03:57.541Z,99625.16
2022-09-09T14:06:25.397Z,99627.34
2022-09-09T14:08:53.399Z,99624.38
2022-09-09T14:11:23.129Z,99628.50
2022-09-09T14:13:51.424Z,99624.63
2022-09-09T14:16:19.434Z,99628.16
2022-09-09T14:18:47.993Z,99624.81
2022-09-09T14:21:16.649Z,99625.75
2022-09-09T14:23:44.277Z,99620.00
2022-09-09T14:26:11.913Z,99620.69
2022-09-09T14:28:56.706Z,99627.72
2022-09-09T14:31:24.660Z,99619.28
2022-09-09T14:33:55.460Z,99625.53
2022-09-09T14:36:23.788Z,99620.66
2022-09-09T14:38:51.649Z,99617.72
2022-09-09T14:41:21.055Z,99604.41
2022-09-09T14:43:50.588Z,99605.00
2022-09-09T14:46:20.656Z,99608.38
2022-09-09T14:48:49.443Z,99598.63
2022-09-09T14:51:18.770Z,99601.34
2022-09-09T14:53:47.545Z,99600.59
2022-09-09T14:56:17.378Z,99599.25
2022-09-09T14:58:45.753Z,99584.81
2022-09-09T15:01:17.017Z,99585.66
2022-09-09T15:03:51.022Z,99583.78
2022-09-09T15:06:19.237Z,99582.72
2022-09-09T15:08:50.425Z,99584.34
2022-09-09T15:11:18.170Z,99581.88
2022-09-09T15:13:46.193Z,99584.06
2022-09-09T15:16:17.543Z,99584.59
2022-09-09T15:18:47.214Z,99583.53
2022-09-09T15:21:16.520Z,99585.69
2022-09-09T15:23:44.773Z,99590.03
2022-09-09T15:26:13.086Z,99582.09
2022-09-09T15:28:40.781Z,99580.50
2022-09-09T15:31:11.845Z,99581.03
2022-09-09T15:33:40.827Z,99584.59
2022-09-09T15:36:15.758Z,99588.41
2022-09-09T15:38:44.892Z,99584.59
2022-09-09T15:41:13.202Z,99582.47
2022-09-09T15:43:41.328Z,99589.22
2022-09-09T15:46:27.091Z,99589.25
2022-09-09T15:48:57.987Z,99591.44
2022-09-09T15:51:44.011Z,99594.72
2022-09-09T15:54:14.071Z,99591.69
2022-09-09T15:56:42.383Z,99599.84
2022-09-09T15:59:09.994Z,99595.47
2022-09-09T16:01:38.798Z,99599.22
2022-09-09T16:04:08.186Z,99598.09
2022-09-09T16:06:36.206Z,99592.06
2022-09-09T16:09:06.319Z,99596.34
2022-09-09T16:11:36.741Z,99599.88
2022-09-09T16:14:06.223Z,99606.72
2022-09-09T16:16:36.065Z,99606.34
2022-09-09T16:19:10.430Z,99610.16
2022-09-09T16:21:40.923Z,99603.84
2022-09-09T16:24:10.062Z,99591.59
2022-09-09T16:26:40.069Z,99595.97
2022-09-09T16:29:07.896Z,99598.13
2022-09-09T16:31:35.606Z,99603.25
2022-09-09T16:34:04.120Z,99601.00
2022-09-09T16:36:35.789Z,99604.53
2022-09-09T16:39:05.723Z,99605.03
2022-09-09T16:41:34.312Z,99605.03
2022-09-09T16:44:05.391Z,99605.00
2022-09-09T16:46:36.379Z,99605.03
2022-09-09T16:49:06.778Z,99607.13
2022-09-09T16:51:37.931Z,99606.38
2022-09-09T16:54:08.461Z,99612.88
2022-09-09T16:56:38.766Z,99609.09
2022-09-09T16:59:08.566Z,99615.59
2022-09-09T17:01:38.832Z,99613.38
2022-09-09T17:04:08.591Z,99616.50
2022-09-09T17:06:38.929Z,99614.28
2022-09-09T17:09:08.695Z,99623.16
2022-09-09T17:11:39.285Z,99616.28
2022-09-09T17:14:09.694Z,99629.50
2022-09-09T17:16:37.939Z,99625.66
2022-09-09T17:19:06.205Z,99632.38
2022-09-09T17:21:34.634Z,99637.81
2022-09-09T17:24:03.856Z,99636.44
2022-09-09T17:26:34.003Z,99641.53
2022-09-09T17:29:03.234Z,99639.38
2022-09-09T17:31:31.689Z,99633.13
2022-09-09T17:34:00.311Z,99643.88
2022-09-09T17:36:31.070Z,99646.84
2022-09-09T17:39:00.641Z,99642.69
2022-09-09T17:41:31.477Z,99641.03
2022-09-09T17:43:59.730Z,99642.63
2022-09-09T17:46:31.181Z,99643.19
2022-09-09T17:49:01.929Z,99638.19
2022-09-09T17:51:32.019Z,99649.53
2022-09-09T17:54:02.067Z,99661.66
2022-09-09T17:56:33.613Z,99656.97
2022-09-09T17:59:03.513Z,99656.97
2022-09-09T18:01:33.171Z,99659.94
2022-09-09T18:04:03.155Z,99661.53
2022-09-09T18:06:34.450Z,99659.94
2022-09-09T18:09:03.698Z,99677.50
2022-09-09T18:11:35.274Z,99672.56
2022-09-09T18:14:04.671Z,99681.78
2022-09-09T18:16:36.006Z,99682.78
2022-09-09T18:19:04.969Z,99689.09
2022-09-09T18:21:34.079Z,99680.59
2022-09-09T18:24:03.176Z,99697.00
2022-09-09T18:26:33.607Z,99696.44
2022-09-09T18:29:04.221Z,99699.00
2022-09-09T18:31:32.154Z,99697.06
2022-09-09T18:34:03.669Z,99704.69
2022-09-09T18:36:34.004Z,99695.41
2022-09-09T18:39:03.575Z,99699.69
2022-09-09T18:41:34.785Z,99709.03
2022-09-09T18:44:06.197Z,99707.41
2022-09-09T18:46:35.576Z,99712.69
2022-09-09T18:49:04.631Z,99719.97
2022-09-09T18:51:33.485Z,99729.03
2022-09-09T18:54:04.457Z,99727.03
2022-09-09T18:56:33.347Z,99730.56
2022-09-09T18:59:03.194Z,99742.66
2022-09-09T19:01:31.776Z,99741.75
2022-09-09T19:03:59.858Z,99754.44
2022-09-09T19:06:30.481Z,99743.81
2022-09-09T19:09:02.840Z,99751.94
2022-09-09T19:11:30.903Z,99751.72
2022-09-09T19:14:04.558Z,99764.19
2022-09-09T19:16:34.318Z,99761.06
2022-09-09T19:19:04.312Z,99762.44
2022-09-09T19:21:35.574Z,99768.28
2022-09-09T19:24:06.402Z,99768.69
2022-09-09T19:26:40.394Z,99776.09
2022-09-09T19:29:10.065Z,99775.75
2022-09-09T19:31:38.823Z,99771.22
2022-09-09T19:34:06.597Z,99777.72
2022-09-09T19:36:34.210Z,99776.72
2022-09-09T19:39:03.285Z,99773.78
2022-09-09T19:41:32.468Z,99766.38
2022-09-09T19:44:01.924Z,99771.88
2022-09-09T19:46:32.419Z,99772.75
2022-09-09T19:49:01.720Z,99780.00
2022-09-09T19:51:30.714Z,99779.06
2022-09-09T19:54:00.662Z,99777.56
2022-09-09T19:56:29.356Z,99770.44
2022-09-09T19:58:57.941Z,99772.22
2022-09-09T20:01:27.452Z,99774.47
2022-09-09T20:03:58.787Z,99770.72
2022-09-09T20:06:29.188Z,99770.28
2022-09-09T20:08:57.851Z,99771.00
2022-09-09T20:11:26.275Z,99778.19
2022-09-09T20:13:54.190Z,99772.91
2022-09-09T20:16:24.493Z,99777.97
2022-09-09T20:18:54.092Z,99784.78
2022-09-09T20:21:26.105Z,99773.88
2022-09-09T20:23:55.751Z,99776.78
2022-09-09T20:26:26.015Z,99778.22
2022-09-09T20:28:54.724Z,99781.63
2022-09-09T20:31:24.838Z,99772.34
2022-09-09T20:33:53.351Z,99771.78
2022-09-09T20:36:27.838Z,99771.78
2022-09-09T20:38:58.012Z,99766.47
2022-09-09T20:41:28.428Z,99762.84
2022-09-09T20:43:57.965Z,99761.06
2022-09-09T20:46:28.152Z,99771.31
2022-09-09T20:49:00.817Z,99771.19
2022-09-09T20:51:33.730Z,99774.13
2022-09-09T20:54:03.803Z,99777.31
2022-09-09T20:56:33.876Z,99779.44
2022-09-09T20:59:02.689Z,99784.25
2022-09-09T21:01:30.733Z,99782.44
2022-09-09T21:03:58.570Z,99771.56
2022-09-09T21:06:26.175Z,99779.69
2022-09-09T21:08:55.147Z,99777.09
2022-09-09T21:11:22.746Z,99777.34
2022-09-09T21:13:51.138Z,99781.09
2022-09-09T21:16:21.131Z,99781.78
2022-09-09T21:18:49.738Z,99778.47
2022-09-09T21:21:19.406Z,99782.81
2022-09-09T21:23:47.054Z,99781.41
2022-09-09T21:26:17.785Z,99773.69
2022-09-09T21:28:45.334Z,99783.16
2022-09-09T21:31:15.037Z,99784.44
2022-09-09T21:33:42.981Z,99788.22
2022-09-09T21:36:12.443Z,99795.25
2022-09-09T21:38:41.361Z,99799.94
2022-09-09T21:41:12.786Z,99809.25
2022-09-09T21:43:42.530Z,99807.03
2022-09-09T21:46:10.906Z,99817.47
2022-09-09T21:48:38.824Z,99814.41
2022-09-09T21:51:08.830Z,99809.00
2022-09-09T21:53:36.721Z,99813.34
2022-09-09T21:56:07.159Z,99810.75
2022-09-09T21:58:35.771Z,99815.09
2022-09-09T22:01:10.254Z,99821.81
2022-09-09T22:03:39.018Z,99819.00
2022-09-09T22:06:08.412Z,99817.69
2022-09-09T22:08:36.967Z,99816.78
2022-09-09T22:11:10.483Z,99818.28
2022-09-09T22:13:38.465Z,99815.94
2022-09-09T22:16:09.297Z,99815.94
2022-09-09T22:18:37.189Z,99816.28
2022-09-09T22:21:07.277Z,99817.56
2022-09-09T22:23:36.401Z,99815.69
2022-09-09T22:26:04.743Z,99810.97
2022-09-09T22:28:32.828Z,99810.50
2022-09-09T22:31:00.816Z,99807.34
2022-09-09T22:33:30.284Z,99810.88
2022-09-09T22:35:57.815Z,99808.41
2022-09-09T22:38:25.690Z,99811.31
2022-09-09T22:40:53.910Z,99809.66
2022-09-09T22:43:23.405Z,99809.41
2022-09-09T22:45:52.253Z,99811.63
2022-09-09T22:48:19.794Z,99812.00
2022-09-09T22:50:48.701Z,99810.00
2022-09-09T22:53:18.571Z,99816.09
2022-09-09T22:55:58.476Z,99811.66
2022-09-09T22:58:26.709Z,99813.06
2022-09-09T23:00:58.622Z,99812.81
2022-09-09T23:03:26.393Z,99806.81
2022-09-09T23:05:57.418Z,99814.47
2022-09-09T23:08:26.595Z,99799.53
2022-09-09T23:10:55.455Z,99802.56
2022-09-09T23:13:24.020Z,99801.41
2022-09-09T23:15:52.231Z,99809.13
2022-09-09T23:18:20.240Z,99813.91
2022-09-09T23:21:00.392Z,99814.97
2022-09-09T23:23:28.532Z,99814.44
2022-09-09T23:25:56.241Z,99821.50
2022-09-09T23:28:23.766Z,99816.59
2022-09-09T23:30:51.530Z,99818.25
2022-09-09T23:33:19.140Z,99807.69
2022-09-09T23:35:46.927Z,99821.78
2022-09-09T23:38:15.860Z,99815.31
2022-09-09T23:40:47.885Z,99819.41
2022-09-09T23:43:16.085Z,99825.44
2022-09-09T23:45:43.869Z,99820.84
2022-09-09T23:48:11.497Z,99823.91
2022-09-09T23:50:39.149Z,99822.03
2022-09-09T23:53:08.343Z,99816.06
2022-09-09T23:55:37.355Z,99813.13
2022-09-09T23:58:05.591Z,99804.78
